Time;durP1;ratioP1;P1;durP2;ratioP2;P2;SDS_P1;SDS_P2;PMS_P1;PMS_P2;Temp;Humidity;BMP_temperature;BMP_pressure;BME280_temperature;BME280_humidity;BME280_pressure;Samples;Min_cycle;Max_cycle;Signal;HPM_P1;HPM_P2
2023/07/12 00:00:45;;;;;;;7.30;5.50;;;;;;;21.48;100.00;98018.63;4185515;28;20211;-46
2023/07/12 00:02:48;;;;;;;5.95;5.32;;;;;;;21.62;100.00;98024.81;4187383;28;20769;-46
2023/07/12 00:04:50;;;;;;;5.32;4.93;;;;;;;21.75;100.00;98029.38;4182791;28;20217;-47
2023/07/12 00:06:52;;;;;;;5.25;4.75;;;;;;;21.85;100.00;98029.03;4183674;28;20239;-47
2023/07/12 00:08:53;;;;;;;6.00;5.25;;;;;;;21.87;100.00;98027.53;4215768;28;20209;-47
2023/07/12 00:10:56;;;;;;;5.35;4.85;;;;;;;21.61;100.00;98023.19;4171772;28;20207;-47
2023/07/12 00:12:58;;;;;;;6.43;5.32;;;;;;;21.45;100.00;98022.09;4201093;28;20281;-46
2023/07/12 00:15:00;;;;;;;5.50;4.97;;;;;;;21.55;100.00;98021.72;4188399;28;20613;-47
2023/07/12 00:17:02;;;;;;;7.30;5.65;;;;;;;21.55;100.00;98021.72;4195515;28;20227;-46
2023/07/12 00:19:05;;;;;;;8.00;6.05;;;;;;;21.48;100.00;98019.47;4187441;28;20268;-46
2023/07/12 00:21:12;;;;;;;5.65;5.13;;;;;;;21.33;100.00;98005.25;4183857;28;20221;-47
2023/07/12 00:23:15;;;;;;;8.48;5.55;;;;;;;21.41;100.00;98002.47;4184301;28;20207;-46
2023/07/12 00:25:19;;;;;;;6.25;5.80;;;;;;;21.41;100.00;98001.63;4182310;28;20218;-46
2023/07/12 00:27:20;;;;;;;5.78;5.13;;;;;;;21.60;100.00;98010.41;4199102;28;22255;-46
2023/07/12 00:29:22;;;;;;;5.40;4.88;;;;;;;21.72;100.00;98007.78;4181241;28;20284;-47
2023/07/12 00:31:24;;;;;;;6.60;5.40;;;;;;;21.81;100.00;98008.53;4187292;28;20280;-47
2023/07/12 00:33:26;;;;;;;7.20;5.13;;;;;;;21.61;100.00;98004.50;4187356;28;20211;-46
2023/07/12 00:35:29;;;;;;;5.03;4.60;;;;;;;21.73;100.00;98010.22;4188123;28;20663;-46
2023/07/12 00:37:31;;;;;;;5.70;5.05;;;;;;;21.84;100.00;98011.47;4198018;28;20222;-47
2023/07/12 00:39:34;;;;;;;5.93;5.32;;;;;;;21.67;100.00;98011.56;4182480;28;20304;-47
2023/07/12 00:42:09;;;;;;;5.20;4.70;;;;;;;21.68;100.00;98029.09;4189828;28;20215;-46
2023/07/12 00:44:16;;;;;;;6.63;4.82;;;;;;;21.76;100.00;98042.16;4198593;28;20281;-47
2023/07/12 00:46:31;;;;;;;5.78;5.30;;;;;;;21.81;100.00;98039.19;4185286;28;22212;-49
2023/07/12 00:48:33;;;;;;;5.95;4.53;;;;;;;21.80;100.00;98043.13;4183653;28;20226;-46
2023/07/12 00:50:35;;;;;;;5.45;4.10;;;;;;;21.86;100.00;98036.22;4171362;28;20215;-47
2023/07/12 00:52:37;;;;;;;5.05;4.57;;;;;;;21.91;100.00;98028.50;4185776;28;20214;-48
2023/07/12 00:54:55;;;;;;;4.70;4.15;;;;;;;21.88;100.00;98031.13;4173495;28;20287;-47
2023/07/12 00:56:56;;;;;;;5.18;4.68;;;;;;;21.90;100.00;98032.44;4183157;28;20320;-47
2023/07/12 00:59:08;;;;;;;6.70;5.05;;;;;;;21.94;100.00;98029.78;4181600;28;20198;-47
2023/07/12 01:01:11;;;;;;;4.03;3.72;;;;;;;21.88;100.00;98033.91;4182448;28;20300;-46
2023/07/12 01:03:14;;;;;;;6.55;5.15;;;;;;;22.01;100.00;98022.56;4186558;28;20210;-47
2023/07/12 01:05:17;;;;;;;5.93;3.97;;;;;;;21.89;100.00;98019.66;4170463;28;20203;-47
2023/07/12 01:07:20;;;;;;;5.22;4.72;;;;;;;21.91;100.00;98024.91;4182973;28;20285;-47
2023/07/12 01:09:23;;;;;;;7.75;4.78;;;;;;;21.86;100.00;98019.50;4200479;28;20299;-48
2023/07/12 01:11:25;;;;;;;5.47;3.97;;;;;;;21.88;100.00;98006.88;4186708;28;20263;-47
2023/07/12 01:13:29;;;;;;;6.05;4.55;;;;;;;21.90;100.00;98014.91;4187127;28;20219;-47
2023/07/12 01:15:32;;;;;;;7.15;4.40;;;;;;;21.77;100.00;98005.63;4189963;28;20931;-47
2023/07/12 01:17:34;;;;;;;4.38;3.97;;;;;;;21.88;100.00;98000.47;4189557;28;20226;-47
2023/07/12 01:19:37;;;;;;;5.18;4.32;;;;;;;21.89;100.00;98002.94;4183781;28;20214;-47
2023/07/12 01:21:45;;;;;;;4.70;4.30;;;;;;;21.92;100.00;98001.47;4184908;28;20210;-47
2023/07/12 01:23:49;;;;;;;5.35;4.18;;;;;;;21.94;100.00;97999.13;4188791;28;20570;-47
2023/07/12 01:26:14;;;;;;;5.47;4.20;;;;;;;21.85;100.00;97992.81;4200927;28;20216;-46
2023/07/12 01:28:15;;;;;;;4.53;4.13;;;;;;;21.87;100.00;97993.28;4201648;28;20225;-47
2023/07/12 01:30:20;;;;;;;4.50;4.10;;;;;;;21.68;100.00;97995.66;4169117;28;20214;-46
2023/07/12 01:32:22;;;;;;;6.47;4.80;;;;;;;21.77;100.00;97994.47;4200384;28;20202;-47
2023/07/12 01:34:24;;;;;;;5.68;4.30;;;;;;;21.71;100.00;97995.00;4184244;28;20226;-46
2023/07/12 01:36:27;;;;;;;6.32;4.65;;;;;;;21.61;100.00;98001.72;4200701;28;20214;-47
2023/07/12 01:38:29;;;;;;;5.63;4.30;;;;;;;21.69;100.00;98003.69;4187197;28;20199;-46
2023/07/12 01:40:30;;;;;;;5.20;4.25;;;;;;;21.39;100.00;98001.16;4203794;28;20663;-46
2023/07/12 01:42:32;;;;;;;4.60;4.15;;;;;;;21.33;100.00;97991.34;4172777;28;20319;-47
2023/07/12 01:44:34;;;;;;;6.43;5.28;;;;;;;21.47;100.00;97983.59;4217550;28;20217;-46
2023/07/12 01:46:36;;;;;;;4.95;4.18;;;;;;;21.22;100.00;97978.91;4196493;28;20671;-46
2023/07/12 01:48:37;;;;;;;4.43;3.67;;;;;;;21.25;100.00;97975.50;4185163;28;20273;-46
2023/07/12 01:50:41;;;;;;;4.75;3.92;;;;;;;21.34;100.00;97979.88;4187963;28;20229;-47
2023/07/12 01:52:43;;;;;;;5.97;4.20;;;;;;;21.22;100.00;97978.91;4202453;28;20302;-46
2023/07/12 01:54:45;;;;;;;5.05;4.38;;;;;;;21.20;100.00;97970.09;4201906;28;20214;-47
2023/07/12 01:56:46;;;;;;;6.50;4.80;;;;;;;21.20;100.00;97964.53;4186504;28;20253;-46
2023/07/12 01:58:48;;;;;;;20.50;4.97;;;;;;;21.21;100.00;97971.72;4170215;28;20207;-48
2023/07/12 02:00:51;;;;;;;5.88;5.28;;;;;;;21.26;100.00;97977.13;4187763;28;20207;-47
2023/07/12 02:02:52;;;;;;;7.90;4.72;;;;;;;21.34;100.00;97974.31;4189744;28;20220;-46
2023/07/12 02:04:54;;;;;;;5.35;4.82;;;;;;;21.35;100.00;97975.94;4190576;28;20214;-47
2023/07/12 02:06:56;;;;;;;4.10;3.72;;;;;;;21.34;100.00;97976.25;4187804;28;20316;-48
2023/07/12 02:08:58;;;;;;;6.30;4.60;;;;;;;21.43;100.00;97974.28;4188002;28;20288;-48
2023/07/12 02:11:00;;;;;;;6.65;4.55;;;;;;;21.48;100.00;97976.88;4201586;28;20645;-47
2023/07/12 02:13:02;;;;;;;4.13;3.55;;;;;;;21.35;100.00;97967.59;4191197;28;20207;-48
2023/07/12 02:15:04;;;;;;;7.05;4.13;;;;;;;21.32;100.00;97959.09;4202733;28;20201;-49
2023/07/12 02:17:06;;;;;;;4.45;4.07;;;;;;;21.34;100.00;97965.13;4189607;28;20959;-47
2023/07/12 02:19:07;;;;;;;4.07;3.42;;;;;;;21.42;100.00;97964.28;4170333;28;20621;-47
2023/07/12 02:21:09;;;;;;;5.25;4.75;;;;;;;21.38;100.00;97964.13;4202107;28;20233;-47
2023/07/12 02:23:11;;;;;;;7.35;4.10;;;;;;;21.39;100.00;97964.97;4187778;28;20203;-47
2023/07/12 02:25:14;;;;;;;5.13;4.53;;;;;;;21.43;100.00;97960.38;4183845;28;20207;-47
2023/07/12 02:27:15;;;;;;;6.55;3.70;;;;;;;21.37;100.00;97965.28;4172738;28;20613;-47
2023/07/12 02:29:17;;;;;;;5.38;4.97;;;;;;;21.39;100.00;97967.75;4186294;28;20593;-47
2023/07/12 02:31:21;;;;;;;4.43;3.80;;;;;;;21.41;100.00;97952.34;4184627;28;20207;-47
2023/07/12 02:33:23;;;;;;;6.10;4.28;;;;;;;21.27;100.00;97950.91;4183921;28;20207;-47
2023/07/12 02:35:27;;;;;;;4.68;3.88;;;;;;;21.34;100.00;97940.06;4189594;28;20272;-47
2023/07/12 02:37:29;;;;;;;5.07;4.68;;;;;;;21.40;100.00;97949.88;4189462;28;20223;-47
2023/07/12 02:39:31;;;;;;;5.95;4.30;;;;;;;21.20;100.00;97947.81;4189409;28;20623;-46
2023/07/12 02:41:33;;;;;;;10.35;5.13;;;;;;;21.14;100.00;97946.38;4201103;28;20210;-47
2023/07/12 02:43:35;;;;;;;5.85;3.80;;;;;;;21.15;100.00;97937.69;4217550;28;20194;-49
2023/07/12 02:45:36;;;;;;;7.53;4.18;;;;;;;21.20;100.00;97945.03;4186249;28;20298;-47
2023/07/12 02:47:38;;;;;;;5.00;4.28;;;;;;;21.24;100.00;97951.59;4185356;28;20757;-47
2023/07/12 02:49:40;;;;;;;9.63;4.35;;;;;;;21.29;100.00;97948.59;4189326;28;20215;-47
2023/07/12 02:51:42;;;;;;;4.78;4.38;;;;;;;21.36;100.00;97948.91;4188030;28;20249;-46
2023/07/12 02:53:43;;;;;;;5.80;3.83;;;;;;;21.30;100.00;97933.56;4188353;28;20202;-47
2023/07/12 02:55:51;;;;;;;5.20;3.97;;;;;;;21.29;100.00;97943.03;4185958;28;20211;-47
2023/07/12 02:57:53;;;;;;;4.00;3.60;;;;;;;21.33;100.00;97946.81;4186120;28;20235;-48
2023/07/12 02:59:54;;;;;;;6.93;4.15;;;;;;;21.31;100.00;97946.31;4182242;28;20208;-47
2023/07/12 03:01:56;;;;;;;5.97;4.53;;;;;;;21.28;100.00;97955.31;4202226;28;20615;-47
2023/07/12 03:03:58;;;;;;;9.55;4.10;;;;;;;21.24;100.00;97951.59;4201390;28;20237;-47
2023/07/12 03:06:04;;;;;;;7.97;4.43;;;;;;;21.21;100.00;97963.38;4199240;28;20315;-47
2023/07/12 03:08:07;;;;;;;6.15;4.90;;;;;;;21.21;100.00;97960.59;4197577;28;20237;-47
2023/07/12 03:10:09;;;;;;;4.15;3.85;;;;;;;21.16;100.00;97956.03;4186164;28;20199;-48
2023/07/12 03:12:11;;;;;;;5.28;4.78;;;;;;;21.24;100.00;97966.31;4194242;28;20221;-47
2023/07/12 03:14:16;;;;;;;7.40;5.65;;;;;;;21.18;100.00;97958.47;4174370;28;20215;-49
2023/07/12 03:16:18;;;;;;;5.47;4.65;;;;;;;21.14;100.00;97963.91;4186809;28;20237;-47
2023/07/12 03:18:20;;;;;;;4.55;4.07;;;;;;;21.10;100.00;97962.13;4202616;28;20206;-47
2023/07/12 03:20:22;;;;;;;6.38;5.50;;;;;;;21.06;100.00;97961.13;4187093;28;20208;-48
2023/07/12 03:22:23;;;;;;;6.40;4.72;;;;;;;21.09;100.00;97966.03;4185459;28;20203;-47
2023/07/12 03:24:25;;;;;;;6.57;5.97;;;;;;;20.97;100.00;97958.34;4187467;28;21085;-47
2023/07/12 03:26:27;;;;;;;5.75;4.72;;;;;;;20.99;100.00;97960.81;4192513;28;20210;-47
2023/07/12 03:28:29;;;;;;;4.75;4.05;;;;;;;21.08;100.00;97964.38;4194460;28;20276;-47
2023/07/12 03:30:31;;;;;;;5.90;4.22;;;;;;;21.00;100.00;97963.28;4192247;28;20290;-47
2023/07/12 03:32:33;;;;;;;6.60;4.53;;;;;;;20.97;100.00;97963.13;4191376;28;20207;-47
2023/07/12 03:34:35;;;;;;;6.25;4.60;;;;;;;20.98;100.00;97967.53;4180746;28;20208;-48
2023/07/12 03:36:39;;;;;;;7.75;4.53;;;;;;;20.95;100.00;97968.19;4191227;28;20230;-47
2023/07/12 03:38:41;;;;;;;8.38;5.22;;;;;;;20.94;100.00;97970.16;4172780;28;20219;-47
2023/07/12 03:40:47;;;;;;;7.78;4.72;;;;;;;20.92;100.00;97971.63;4199136;28;20203;-47
2023/07/12 03:42:48;;;;;;;10.02;5.05;;;;;;;20.89;100.00;97972.28;4199074;28;20357;-47
2023/07/12 03:44:50;;;;;;;6.47;5.10;;;;;;;20.88;100.00;97977.03;4179092;28;20206;-47
2023/07/12 03:46:52;;;;;;;5.72;4.03;;;;;;;20.93;100.00;97978.84;4196139;28;20229;-47
2023/07/12 03:48:53;;;;;;;4.55;4.15;;;;;;;20.90;100.00;97976.72;4190024;28;20242;-47
2023/07/12 03:50:55;;;;;;;7.50;4.95;;;;;;;20.95;100.00;97993.22;4185040;28;20218;-47
2023/07/12 03:52:57;;;;;;;7.82;4.55;;;;;;;20.99;100.00;97989.44;4188275;28;20214;-47
2023/07/12 03:54:59;;;;;;;7.95;5.40;;;;;;;20.96;100.00;97989.28;4186640;28;20207;-47
2023/07/12 03:57:01;;;;;;;5.00;4.32;;;;;;;20.94;100.00;97986.84;4190800;28;20257;-47
2023/07/12 03:59:02;;;;;;;6.97;4.75;;;;;;;20.89;100.00;97995.38;4192475;28;20655;-47
2023/07/12 04:01:08;;;;;;;7.55;4.90;;;;;;;20.92;100.00;98005.03;4184106;28;20303;-47
2023/07/12 04:03:11;;;;;;;4.78;4.38;;;;;;;20.95;100.00;98007.13;4186619;28;20215;-47
2023/07/12 04:05:13;;;;;;;8.32;4.65;;;;;;;21.00;100.00;98018.94;4191272;28;20285;-47
2023/07/12 04:07:15;;;;;;;5.57;4.47;;;;;;;21.01;100.00;98015.00;4181856;28;20345;-48
2023/07/12 04:09:16;;;;;;;5.88;4.95;;;;;;;20.98;100.00;98021.19;4215070;28;20287;-49
2023/07/12 04:11:27;;;;;;;7.13;5.45;;;;;;;20.91;100.00;98025.66;4190769;28;20782;-47
2023/07/12 04:13:29;;;;;;;5.25;4.85;;;;;;;20.87;100.00;98027.41;4192312;28;20207;-47
2023/07/12 04:15:31;;;;;;;8.90;5.00;;;;;;;20.84;100.00;98031.66;4200904;28;20272;-48
2023/07/12 04:17:33;;;;;;;6.40;4.78;;;;;;;20.82;100.00;98033.97;4185641;28;21224;-46
2023/07/12 04:19:35;;;;;;;5.13;4.72;;;;;;;20.80;100.00;98044.59;4185323;28;20652;-46
2023/07/12 04:21:36;;;;;;;5.90;4.78;;;;;;;20.86;100.00;98054.41;4192449;28;20250;-48
2023/07/12 04:23:38;;;;;;;6.80;5.10;;;;;;;20.85;100.00;98068.66;4190886;28;20203;-47
2023/07/12 04:25:40;;;;;;;5.43;4.93;;;;;;;20.79;100.00;98073.53;4191039;28;20203;-48
2023/07/12 04:27:42;;;;;;;7.97;5.07;;;;;;;20.87;100.00;98080.25;4193187;28;20769;-48
2023/07/12 04:29:44;;;;;;;8.93;6.10;;;;;;;20.91;100.00;98070.97;4200119;28;20225;-48
2023/07/12 04:31:46;;;;;;;8.98;5.78;;;;;;;20.95;100.00;98087.81;4184322;28;20699;-48
2023/07/12 04:33:48;;;;;;;7.05;5.03;;;;;;;20.79;100.00;98089.41;4183237;28;20567;-48
2023/07/12 04:35:50;;;;;;;9.68;6.68;;;;;;;20.60;100.00;98092.53;4181692;28;20226;-49
2023/07/12 04:37:52;;;;;;;7.47;5.90;;;;;;;20.56;100.00;98107.38;4184224;28;20652;-48
2023/07/12 04:39:54;;;;;;;7.80;5.25;;;;;;;20.50;100.00;98111.47;4183673;28;20210;-47
2023/07/12 04:41:55;;;;;;;6.57;5.85;;;;;;;20.62;100.00;98106.91;4172436;28;20215;-47
2023/07/12 04:43:57;;;;;;;8.90;6.50;;;;;;;20.66;100.00;98124.59;4182857;28;20245;-47
2023/07/12 04:46:00;;;;;;;7.82;5.60;;;;;;;20.75;100.00;98121.81;4167056;28;20580;-47
2023/07/12 04:48:02;;;;;;;6.10;5.22;;;;;;;20.69;100.00;98128.66;4184139;28;20659;-47
2023/07/12 04:50:05;;;;;;;7.43;4.97;;;;;;;20.74;100.00;98131.28;4190352;28;20720;-48
2023/07/12 04:52:07;;;;;;;10.45;5.60;;;;;;;20.72;100.00;98139.16;4184114;28;20207;-47
2023/07/12 04:54:09;;;;;;;6.72;5.38;;;;;;;20.67;100.00;98142.09;4183779;28;20676;-46
2023/07/12 04:56:11;;;;;;;10.75;5.15;;;;;;;20.77;100.00;98136.22;4187761;28;20203;-46
2023/07/12 04:58:13;;;;;;;10.27;5.65;;;;;;;20.67;100.00;98144.88;4183748;28;20226;-47
2023/07/12 05:00:15;;;;;;;9.00;6.68;;;;;;;20.58;100.00;98149.59;4184111;28;20214;-46
2023/07/12 05:02:17;;;;;;;7.07;6.25;;;;;;;20.65;100.00;98153.53;4184701;28;20202;-48
2023/07/12 05:04:19;;;;;;;8.95;5.90;;;;;;;20.66;100.00;98157.13;4181813;28;20207;-47
2023/07/12 05:06:21;;;;;;;7.95;5.70;;;;;;;20.71;100.00;98159.78;4201053;28;20623;-47
2023/07/12 05:08:25;;;;;;;5.55;4.95;;;;;;;20.83;100.00;98168.28;4197920;28;20695;-47
2023/07/12 05:10:28;;;;;;;9.30;4.30;;;;;;;20.80;100.00;98168.94;4182251;28;20297;-48
2023/07/12 05:12:30;;;;;;;12.55;5.45;;;;;;;20.92;100.00;98183.88;4185229;28;20199;-47
2023/07/12 05:14:32;;;;;;;6.43;5.65;;;;;;;20.94;100.00;98178.00;4198760;28;20408;-46
2023/07/12 05:16:34;;;;;;;5.30;4.80;;;;;;;20.98;100.00;98187.34;4184882;28;20560;-46
2023/07/12 05:18:35;;;;;;;9.75;5.93;;;;;;;20.89;100.00;98183.72;4190191;28;20238;-46
2023/07/12 05:20:37;;;;;;;8.57;5.00;;;;;;;20.97;100.00;98191.28;4189113;28;20265;-46
2023/07/12 05:22:40;;;;;;;7.53;4.65;;;;;;;20.99;100.00;98188.97;4191903;28;20209;-47
2023/07/12 05:24:41;;;;;;;7.78;6.28;;;;;;;20.94;100.00;98186.34;4185393;28;20673;-46
2023/07/12 05:26:43;;;;;;;11.45;5.78;;;;;;;20.88;100.00;98179.28;4186956;28;20230;-46
2023/07/12 05:28:45;;;;;;;7.55;6.88;;;;;;;20.88;100.00;98179.28;4186994;28;20211;-48
2023/07/12 05:30:48;;;;;;;8.50;6.03;;;;;;;20.81;100.00;98176.13;4187529;28;20627;-47
2023/07/12 05:32:50;;;;;;;7.18;6.20;;;;;;;20.83;100.00;98168.28;4172370;28;20211;-47
2023/07/12 05:34:51;;;;;;;14.77;6.78;;;;;;;20.81;100.00;98160.28;4185601;28;20207;-48
2023/07/12 05:36:53;;;;;;;9.48;6.50;;;;;;;20.85;100.00;98163.22;4165032;28;20235;-47
2023/07/12 05:38:56;;;;;;;10.60;9.68;;;;;;;20.90;100.00;98165.91;4184117;28;20652;-47
2023/07/12 05:40:59;;;;;;;11.45;9.27;;;;;;;20.93;100.00;98163.28;4181860;28;20257;-46
2023/07/12 05:43:01;;;;;;;11.60;10.45;;;;;;;20.86;100.00;98165.69;4183036;28;20739;-48
2023/07/12 05:45:03;;;;;;;11.88;10.65;;;;;;;20.90;100.00;98166.69;4183250;28;20722;-47
2023/07/12 05:47:06;;;;;;;12.73;11.88;;;;;;;20.93;100.00;98156.88;4181551;28;20238;-47
2023/07/12 05:49:07;;;;;;;13.73;12.52;;;;;;;21.07;100.00;98157.56;4185203;28;20277;-47
2023/07/12 05:51:10;;;;;;;15.10;13.98;;;;;;;21.07;100.00;98157.56;4186001;28;20202;-46
2023/07/12 05:53:12;;;;;;;15.25;13.82;;;;;;;21.19;100.00;98158.53;4184679;28;20210;-47
2023/07/12 05:55:17;;;;;;;15.85;14.45;;;;;;;21.43;100.00;98160.84;4182353;28;20909;-47
2023/07/12 05:57:22;;;;;;;16.92;14.73;;;;;;;21.42;100.00;98165.59;4186321;28;20962;-47
2023/07/12 05:59:24;;;;;;;16.75;14.90;;;;;;;21.60;100.00;98167.22;4187847;28;20211;-46
2023/07/12 06:01:27;;;;;;;16.30;14.85;;;;;;;21.76;100.00;98167.53;4190419;28;20207;-47
2023/07/12 06:03:33;;;;;;;16.20;14.68;;;;;;;21.63;100.00;98166.53;4183556;28;20290;-47
2023/07/12 06:05:35;;;;;;;16.30;15.10;;;;;;;21.85;100.00;98173.91;4185711;28;20681;-48
2023/07/12 06:07:36;;;;;;;16.60;15.30;;;;;;;21.84;100.00;98177.84;4170260;28;20666;-47
2023/07/12 06:09:38;;;;;;;22.30;16.98;;;;;;;21.66;100.00;98176.22;4188652;28;20226;-48
2023/07/12 06:11:40;;;;;;;20.63;15.77;;;;;;;21.58;100.00;98182.63;4188088;28;20226;-53
2023/07/12 06:13:42;;;;;;;19.08;17.77;;;;;;;21.61;100.00;98168.84;4186924;28;20665;-47
2023/07/12 06:15:43;;;;;;;19.08;16.80;;;;;;;21.71;100.00;98173.28;4173940;28;20208;-46
2023/07/12 06:17:45;;;;;;;18.10;16.65;;;;;;;21.66;100.00;98179.84;4166791;28;20276;-46
2023/07/12 06:19:47;;;;;;;18.52;17.13;;;;;;;21.52;100.00;98172.78;4183901;28;20841;-50
2023/07/12 06:21:49;;;;;;;18.00;15.95;;;;;;;21.56;100.00;98182.09;4190404;28;20265;-47
2023/07/12 06:23:51;;;;;;;17.58;16.15;;;;;;;21.46;100.00;98174.09;4192408;28;20237;-46
2023/07/12 06:25:57;;;;;;;18.85;17.67;;;;;;;21.54;100.00;98173.25;4175599;28;20208;-47
2023/07/12 06:27:59;;;;;;;25.00;18.05;;;;;;;21.49;100.00;98174.25;4185430;28;20265;-48
2023/07/12 06:30:01;;;;;;;18.25;16.98;;;;;;;21.48;100.00;98174.56;4187401;28;20226;-48
2023/07/12 06:32:03;;;;;;;19.38;17.73;;;;;;;21.37;100.00;98174.09;4196487;28;20198;-48
2023/07/12 06:34:05;;;;;;;19.00;17.60;;;;;;;21.31;100.00;98169.84;4183300;28;20215;-49
2023/07/12 06:36:07;;;;;;;19.23;17.30;;;;;;;21.59;100.00;98185.03;4183903;28;20669;-50
2023/07/12 06:38:09;;;;;;;17.90;16.73;;;;;;;21.67;100.00;98183.44;4182652;28;20234;-47
2023/07/12 06:40:11;;;;;;;18.98;16.73;;;;;;;21.87;100.00;98182.75;4183046;28;20287;-48
2023/07/12 06:42:13;;;;;;;18.98;17.70;;;;;;;21.94;100.00;98183.91;4187825;28;20203;-47
2023/07/12 06:44:14;;;;;;;17.40;15.88;;;;;;;21.97;100.00;98176.84;4182887;28;20210;-51
2023/07/12 06:46:16;;;;;;;17.17;15.38;;;;;;;22.08;100.00;98184.50;4185404;28;20256;-49
2023/07/12 06:48:18;;;;;;;17.75;15.93;;;;;;;22.00;100.00;98187.31;4189169;28;20231;-46
2023/07/12 06:50:21;;;;;;;18.10;16.30;;;;;;;21.95;100.00;98191.09;4189912;28;20694;-49
2023/07/12 06:52:26;;;;;;;16.38;14.80;;;;;;;21.93;100.00;98189.78;4187596;28;20207;-47
2023/07/12 06:54:28;;;;;;;12.95;12.05;;;;;;;21.98;100.00;98190.41;4188858;28;20221;-48
2023/07/12 06:56:33;;;;;;;16.52;14.82;;;;;;;22.10;100.00;98181.41;4195043;28;20199;-47
2023/07/12 06:58:35;;;;;;;15.80;14.57;;;;;;;;;;4189496;28;20208;-48
2023/07/12 07:00:41;;;;;;;16.58;14.73;;;;;;;22.10;100.00;98189.75;4189097;28;20202;-47
2023/07/12 07:02:46;;;;;;;15.05;14.05;;;;;;;22.21;100.00;98202.16;4186861;28;20290;-50
2023/07/12 07:04:48;;;;;;;21.73;13.80;;;;;;;22.31;100.00;98196.25;4191829;28;20203;-47
2023/07/12 07:06:53;;;;;;;14.57;13.55;;;;;;;22.19;100.00;98201.69;4192135;28;20222;-48
2023/07/12 07:08:54;;;;;;;15.32;14.13;;;;;;;22.11;100.00;98203.34;4171726;28;20654;-48
2023/07/12 07:10:57;;;;;;;14.60;13.48;;;;;;;22.21;100.00;98200.22;4189638;28;20333;-47
2023/07/12 07:12:58;;;;;;;14.63;13.63;;;;;;;22.01;100.00;98203.72;4185746;28;20242;-47
2023/07/12 07:15:00;;;;;;;14.63;13.43;;;;;;;21.96;100.00;98208.63;4186507;28;20739;-48
2023/07/12 07:17:02;;;;;;;17.52;15.85;;;;;;;22.16;100.00;98208.75;4187142;28;20230;-47
2023/07/12 07:19:04;;;;;;;19.88;15.45;;;;;;;22.08;100.00;98217.13;4184323;28;20248;-47
2023/07/12 07:21:06;;;;;;;15.55;13.98;;;;;;;22.07;100.00;98209.91;4200998;28;20686;-47
2023/07/12 07:23:09;;;;;;;15.38;14.05;;;;;;;22.30;100.00;98211.34;4185681;28;20621;-47
2023/07/12 07:25:11;;;;;;;15.35;14.25;;;;;;;22.31;100.00;98226.91;4176367;28;20266;-48
2023/07/12 07:27:22;;;;;;;14.82;13.55;;;;;;;22.19;100.00;98229.56;4186308;28;21121;-47
2023/07/12 07:29:24;;;;;;;14.50;13.40;;;;;;;22.24;100.00;98223.81;4188767;28;20738;-48
2023/07/12 07:31:26;;;;;;;15.07;14.07;;;;;;;22.50;100.00;98230.16;4194676;28;20199;-47
2023/07/12 07:33:28;;;;;;;15.23;13.60;;;;;;;22.30;100.00;98225.28;4169241;28;20243;-47
2023/07/12 07:35:30;;;;;;;14.15;12.98;;;;;;;22.52;100.00;98222.28;4187736;28;20211;-48
2023/07/12 07:37:32;;;;;;;14.18;12.98;;;;;;;22.62;100.00;98233.03;4187223;28;20227;-48
2023/07/12 07:39:34;;;;;;;13.13;11.73;;;;;;;22.64;100.00;98230.75;4202090;28;20198;-48
2023/07/12 07:41:36;;;;;;;11.82;10.68;;;;;;;23.03;100.00;98228.41;4194627;28;20233;-47
2023/07/12 07:43:39;;;;;;;11.82;10.40;;;;;;;22.99;100.00;98232.22;4194460;28;20246;-48
2023/07/12 07:45:42;;;;;;;11.07;8.45;;;;;;;23.34;100.00;98234.47;4194103;28;21116;-47
2023/07/12 07:47:44;;;;;;;9.45;8.68;;;;;;;23.21;100.00;98229.16;4199614;28;20296;-48
2023/07/12 07:49:46;;;;;;;12.38;7.60;;;;;;;23.35;100.00;98226.91;4184055;28;20230;-47
2023/07/12 07:51:48;;;;;;;7.53;6.82;;;;;;;23.63;100.00;98228.81;4193922;28;20249;-48
2023/07/12 07:53:52;;;;;;;10.00;7.55;;;;;;;23.80;100.00;98225.88;4192278;28;20215;-47
2023/07/12 07:55:54;;;;;;;9.95;7.20;;;;;;;23.91;100.00;98215.13;4194364;28;20213;-47
2023/07/12 07:57:56;;;;;;;6.55;5.78;;;;;;;23.83;100.00;98220.44;4193223;28;20226;-49
2023/07/12 07:59:59;;;;;;;9.95;6.35;;;;;;;23.89;100.00;98223.06;4194398;28;20588;-47
2023/07/12 08:02:01;;;;;;;7.13;6.55;;;;;;;23.84;100.00;98215.63;4193931;28;20207;-48
2023/07/12 08:04:04;;;;;;;6.45;5.95;;;;;;;23.88;100.00;98225.03;4193301;28;20217;-47
2023/07/12 08:06:06;;;;;;;5.88;5.38;;;;;;;23.80;96.93;98215.50;4193062;28;20269;-48
2023/07/12 08:08:08;;;;;;;6.03;5.50;;;;;;;23.65;99.97;98215.31;4192871;28;20225;-47
2023/07/12 08:10:11;;;;;;;6.22;5.82;;;;;;;24.16;100.00;98215.69;4183725;28;20275;-47
2023/07/12 08:12:13;;;;;;;6.80;6.03;;;;;;;24.56;99.64;98216.72;4188146;28;20210;-47
2023/07/12 08:14:15;;;;;;;6.35;5.75;;;;;;;24.61;98.12;98219.28;4199236;28;20238;-47
2023/07/12 08:16:17;;;;;;;6.35;5.38;;;;;;;24.69;98.34;98215.59;4191241;28;20203;-48
2023/07/12 08:18:19;;;;;;;9.68;4.93;;;;;;;24.52;95.25;98214.94;4186126;28;20599;-47
2023/07/12 08:20:22;;;;;;;7.03;4.20;;;;;;;24.93;95.56;98215.56;4202722;28;20595;-47
2023/07/12 08:22:25;;;;;;;4.68;4.10;;;;;;;24.67;89.54;98228.28;4183850;28;20316;-47
2023/07/12 08:24:27;;;;;;;4.55;3.63;;;;;;;24.77;87.87;98228.66;4183248;28;20216;-47
2023/07/12 08:26:28;;;;;;;3.05;2.65;;;;;;;24.97;87.81;98222.13;4183554;28;20253;-47
2023/07/12 08:28:30;;;;;;;3.15;2.88;;;;;;;24.96;83.10;98231.69;4197173;28;20214;-49
2023/07/12 08:30:32;;;;;;;5.15;2.97;;;;;;;25.22;85.47;98226.53;4178354;28;20227;-48
2023/07/12 08:32:34;;;;;;;4.60;2.80;;;;;;;25.25;83.66;98227.84;4191742;28;20425;-47
2023/07/12 08:34:36;;;;;;;2.70;2.38;;;;;;;25.33;82.16;98233.31;4164860;28;20690;-47
2023/07/12 08:36:37;;;;;;;3.60;2.42;;;;;;;25.31;82.16;98232.84;4198833;28;20259;-47
2023/07/12 08:38:40;;;;;;;3.22;2.78;;;;;;;25.69;81.32;98236.03;4182894;28;20222;-47
2023/07/12 08:40:45;;;;;;;3.22;2.50;;;;;;;25.68;79.85;98248.44;4201246;28;20206;-46
2023/07/12 08:42:47;;;;;;;3.78;2.25;;;;;;;25.90;80.10;98245.09;4175674;28;20211;-47
2023/07/12 08:44:50;;;;;;;4.15;3.67;;;;;;;25.93;76.37;98244.38;4181439;28;20288;-48
2023/07/12 08:46:55;;;;;;;3.75;2.25;;;;;;;26.10;77.85;98241.28;4200476;28;20233;-48
2023/07/12 08:48:59;;;;;;;2.40;2.17;;;;;;;26.12;73.69;98247.34;4193117;28;20200;-47
2023/07/12 08:51:12;;;;;;;4.88;2.25;;;;;;;25.91;73.89;98246.72;4183153;28;20226;-48
2023/07/12 08:53:26;;;;;;;2.03;1.67;;;;;;;26.22;76.10;98246.84;4167240;28;20251;-48
2023/07/12 08:55:28;;;;;;;4.18;2.33;;;;;;;25.91;75.68;98252.34;4191977;28;20250;-48
2023/07/12 08:57:30;;;;;;;4.80;2.38;;;;;;;26.45;77.83;98245.06;4183006;28;20256;-47
2023/07/12 08:59:31;;;;;;;7.47;2.22;;;;;;;26.02;75.25;98250.69;4188458;28;20211;-47
2023/07/12 09:01:45;;;;;;;4.22;2.17;;;;;;;26.41;79.74;98252.59;4184161;28;20199;-48
2023/07/12 09:03:47;;;;;;;4.38;2.17;;;;;;;26.57;76.35;98259.06;4183815;28;20312;-47
2023/07/12 09:05:49;;;;;;;2.30;1.70;;;;;;;26.34;73.74;98249.59;4186478;28;20955;-47
2023/07/12 09:08:04;;;;;;;3.58;2.58;;;;;;;26.47;73.47;98256.75;4192096;28;20232;-48
2023/07/12 09:10:06;;;;;;;7.50;2.05;;;;;;;26.40;75.30;98253.75;4182214;28;20735;-49
2023/07/12 09:12:30;;;;;;;3.33;1.88;;;;;;;26.19;75.28;98253.16;4169477;28;20207;-47
2023/07/12 09:14:35;;;;;;;2.17;1.70;;;;;;;26.20;77.01;98263.19;4188750;28;20210;-47
2023/07/12 09:16:37;;;;;;;3.63;2.03;;;;;;;26.41;76.42;98255.41;4201173;28;20209;-48
2023/07/12 09:18:39;;;;;;;5.53;2.88;;;;;;;26.18;74.77;98254.34;4183817;28;20209;-47
2023/07/12 09:20:50;;;;;;;3.20;2.58;;;;;;;26.68;73.58;98246.13;4192126;28;20230;-49
2023/07/12 09:22:53;;;;;;;4.25;3.80;;;;;;;27.23;72.97;98251.56;4188669;28;20202;-47
2023/07/12 09:24:56;;;;;;;3.55;2.92;;;;;;;26.76;69.68;98262.00;4187991;28;20281;-47
2023/07/12 09:27:06;;;;;;;5.65;3.60;;;;;;;26.45;69.46;98255.50;4181329;28;20241;-47
2023/07/12 09:29:13;;;;;;;3.88;2.38;;;;;;;26.26;67.64;98258.97;4199150;28;20318;-47
2023/07/12 09:31:22;;;;;;;3.38;3.08;;;;;;;26.75;67.21;98260.34;4188001;28;20205;-47